Time;durP1;ratioP1;P1;durP2;ratioP2;P2;SDS_P1;SDS_P2;PMS_P1;PMS_P2;Temp;Humidity;BMP_temperature;BMP_pressure;BME280_temperature;BME280_humidity;BME280_pressure;Samples;Min_cycle;Max_cycle;Signal;HPM_P1;HPM_P2
2022/03/24 00:00:39;;;;;;;2.30;1.53;;;8.80;99.90;;;;;;5025455;28;20256;-82
2022/03/24 00:03:06;;;;;;;0.70;0.70;;;8.80;99.90;;;;;;5025813;28;20190;-82
2022/03/24 00:05:32;;;;;;;0.60;0.60;;;8.80;99.90;;;;;;5024033;28;20229;-82
2022/03/24 00:07:57;;;;;;;1.70;1.60;;;8.80;99.90;;;;;;5023498;28;20219;-82
2022/03/24 00:10:23;;;;;;;1.73;0.70;;;8.80;99.90;;;;;;5025117;28;20194;-82
2022/03/24 00:12:51;;;;;;;0.80;0.80;;;8.70;99.90;;;;;;5024442;28;20206;-82
2022/03/24 00:15:17;;;;;;;1.00;1.00;;;8.70;99.90;;;;;;5024179;28;20190;-82
2022/03/24 00:17:43;;;;;;;3.87;0.73;;;8.70;99.90;;;;;;5025645;28;20191;-82
2022/03/24 00:20:11;;;;;;;0.80;0.80;;;8.70;99.90;;;;;;5024281;28;20194;-82
2022/03/24 00:22:36;;;;;;;1.13;0.90;;;8.60;99.90;;;;;;5025110;28;20186;-83
2022/03/24 00:25:02;;;;;;;0.70;0.70;;;8.50;99.90;;;;;;5024465;28;20303;-81
2022/03/24 00:27:27;;;;;;;2.73;1.30;;;8.50;99.90;;;;;;5024151;28;20193;-82
2022/03/24 00:29:54;;;;;;;1.00;0.90;;;8.40;99.90;;;;;;5025148;28;20193;-82
2022/03/24 00:32:19;;;;;;;0.73;0.70;;;8.40;99.90;;;;;;5023214;28;20217;-82
2022/03/24 00:34:45;;;;;;;2.80;2.60;;;8.40;99.90;;;;;;5024788;28;20205;-82
2022/03/24 00:37:10;;;;;;;2.03;0.93;;;8.40;99.90;;;;;;5024490;28;20182;-82
2022/03/24 00:39:36;;;;;;;1.00;0.97;;;8.40;99.90;;;;;;5024394;28;20202;-82
2022/03/24 00:42:07;;;;;;;1.00;0.83;;;8.40;99.90;;;;;;5025134;28;20205;-82
2022/03/24 00:44:32;;;;;;;1.80;0.97;;;8.40;99.90;;;;;;5025250;28;20224;-82
2022/03/24 00:46:58;;;;;;;2.90;1.07;;;8.30;99.90;;;;;;5024582;28;20186;-82
2022/03/24 00:49:23;;;;;;;0.70;0.70;;;8.30;99.90;;;;;;5023401;28;21010;-82
2022/03/24 00:51:49;;;;;;;1.10;1.03;;;8.30;99.90;;;;;;5026459;28;20632;-82
2022/03/24 00:54:18;;;;;;;1.60;0.87;;;8.30;99.90;;;;;;5025346;28;21409;-82
2022/03/24 00:56:44;;;;;;;1.07;0.97;;;8.30;99.90;;;;;;5026753;28;20283;-81
2022/03/24 00:59:10;;;;;;;2.40;0.57;;;8.30;99.90;;;;;;5023803;28;20194;-82
2022/03/24 01:01:39;;;;;;;0.90;0.90;;;8.30;99.90;;;;;;5024841;28;20193;-82
2022/03/24 01:04:06;;;;;;;1.37;0.40;;;8.30;99.90;;;;;;5024327;28;20228;-81
2022/03/24 01:06:32;;;;;;;0.83;0.83;;;8.30;99.90;;;;;;5022691;28;20202;-81
2022/03/24 01:08:58;;;;;;;0.97;0.97;;;8.40;99.90;;;;;;5022661;28;20200;-82
2022/03/24 01:11:23;;;;;;;1.90;0.50;;;8.40;99.90;;;;;;5024183;28;20197;-82
2022/03/24 01:13:49;;;;;;;0.87;0.40;;;8.40;99.90;;;;;;5023130;28;20248;-82
2022/03/24 01:16:16;;;;;;;2.23;1.47;;;8.40;99.90;;;;;;5022463;28;20204;-82
2022/03/24 01:18:42;;;;;;;1.20;1.13;;;8.40;99.90;;;;;;5012640;28;20235;-82
2022/03/24 01:21:07;;;;;;;0.93;0.40;;;8.30;99.90;;;;;;5025156;28;20181;-82
2022/03/24 01:23:33;;;;;;;1.50;0.97;;;8.30;99.90;;;;;;5023057;28;20217;-82
2022/03/24 01:26:00;;;;;;;0.77;0.77;;;8.40;99.90;;;;;;5024934;28;20197;-82
2022/03/24 01:28:27;;;;;;;2.60;0.63;;;8.40;99.90;;;;;;5023467;28;20212;-81
2022/03/24 01:30:54;;;;;;;0.60;0.60;;;8.40;99.90;;;;;;5025717;28;20191;-82
2022/03/24 01:33:21;;;;;;;1.20;1.10;;;8.40;99.90;;;;;;5024077;28;20217;-82
2022/03/24 01:35:47;;;;;;;2.67;1.60;;;8.30;99.90;;;;;;5022231;28;20190;-82
2022/03/24 01:38:15;;;;;;;1.33;1.23;;;8.30;99.90;;;;;;5022913;28;20189;-82
2022/03/24 01:40:40;;;;;;;0.80;0.80;;;8.20;99.90;;;;;;5023792;28;20186;-82
2022/03/24 01:43:07;;;;;;;1.20;1.17;;;8.20;99.90;;;;;;5024080;28;20192;-82
2022/03/24 01:45:34;;;;;;;0.83;0.83;;;8.10;99.90;;;;;;5023156;28;20695;-82
2022/03/24 01:48:00;;;;;;;1.00;0.90;;;8.10;99.90;;;;;;5023725;28;20182;-82
2022/03/24 01:50:25;;;;;;;2.17;1.80;;;8.00;99.90;;;;;;5025469;28;20629;-82
2022/03/24 01:52:51;;;;;;;0.87;0.70;;;8.00;99.90;;;;;;5025038;28;21182;-82
2022/03/24 01:55:16;;;;;;;0.73;0.63;;;7.90;99.90;;;;;;5024655;28;20662;-82
2022/03/24 01:57:44;;;;;;;0.73;0.50;;;7.90;99.90;;;;;;5022867;28;20181;-82
2022/03/24 02:00:12;;;;;;;0.47;0.47;;;7.90;99.90;;;;;;5023758;28;20189;-82
2022/03/24 02:02:41;;;;;;;0.80;0.60;;;7.90;99.90;;;;;;5023259;28;20190;-82
2022/03/24 02:05:07;;;;;;;0.90;0.80;;;7.80;99.90;;;;;;5022975;28;20303;-82
2022/03/24 02:07:34;;;;;;;0.87;0.87;;;7.70;99.90;;;;;;5021645;28;20192;-82
2022/03/24 02:09:59;;;;;;;1.23;1.13;;;7.60;99.90;;;;;;5022736;28;20193;-82
2022/03/24 02:12:26;;;;;;;0.60;0.60;;;7.60;99.90;;;;;;5024616;28;20238;-82
2022/03/24 02:14:52;;;;;;;1.10;0.60;;;7.50;99.90;;;;;;5021677;28;20580;-82
2022/03/24 02:17:19;;;;;;;0.50;0.50;;;7.50;99.90;;;;;;5022853;28;20188;-82
2022/03/24 02:19:45;;;;;;;1.27;1.03;;;7.50;99.90;;;;;;5025209;28;20520;-82
2022/03/24 02:22:17;;;;;;;1.03;0.93;;;7.60;99.90;;;;;;5022897;28;20201;-82
2022/03/24 02:24:45;;;;;;;0.93;0.93;;;7.60;99.90;;;;;;5023521;28;20220;-82
2022/03/24 02:27:11;;;;;;;1.43;1.17;;;7.50;99.90;;;;;;5022421;28;20184;-81
2022/03/24 02:29:37;;;;;;;1.50;0.40;;;7.50;99.90;;;;;;5022664;28;20254;-82
2022/03/24 02:32:08;;;;;;;0.40;0.30;;;7.50;99.90;;;;;;5027100;28;20218;-82
2022/03/24 02:34:37;;;;;;;1.50;0.77;;;7.50;99.90;;;;;;5025509;28;20365;-82
2022/03/24 02:37:08;;;;;;;0.33;0.33;;;7.40;99.90;;;;;;5025317;28;20669;-82
2022/03/24 02:39:36;;;;;;;0.50;0.50;;;7.40;99.90;;;;;;5027014;28;20184;-82
2022/03/24 02:42:03;;;;;;;0.57;0.57;;;7.40;99.90;;;;;;5027264;28;20692;-82
2022/03/24 02:44:33;;;;;;;1.67;0.97;;;7.30;99.90;;;;;;5027166;28;20216;-82
2022/03/24 02:47:01;;;;;;;2.10;1.23;;;7.30;99.90;;;;;;5027751;28;20192;-82
2022/03/24 02:49:31;;;;;;;1.20;0.73;;;7.20;99.90;;;;;;5025550;28;20351;-82
2022/03/24 02:51:58;;;;;;;4.17;0.90;;;7.20;99.90;;;;;;5028881;28;20220;-82
2022/03/24 02:54:25;;;;;;;0.73;0.73;;;7.20;99.90;;;;;;5028464;28;20204;-82
2022/03/24 02:56:51;;;;;;;0.80;0.80;;;7.20;99.90;;;;;;5028099;28;20203;-82
2022/03/24 02:59:17;;;;;;;0.63;0.63;;;7.20;99.90;;;;;;5026874;28;20221;-82
2022/03/24 03:01:50;;;;;;;3.10;1.70;;;7.20;99.90;;;;;;5027060;28;20191;-82
2022/03/24 03:04:15;;;;;;;0.90;0.87;;;7.20;99.90;;;;;;5025255;28;20588;-81
2022/03/24 03:06:42;;;;;;;0.57;0.57;;;7.20;99.90;;;;;;5033000;28;20204;-82
2022/03/24 03:09:08;;;;;;;1.10;1.10;;;7.20;99.90;;;;;;5024999;28;20797;-82
2022/03/24 03:11:34;;;;;;;0.83;0.80;;;7.10;99.90;;;;;;5025749;28;20296;-82
2022/03/24 03:14:00;;;;;;;1.20;1.00;;;7.10;99.90;;;;;;5024547;28;20252;-82
2022/03/24 03:16:27;;;;;;;0.80;0.80;;;7.10;99.90;;;;;;5025634;28;20186;-82
2022/03/24 03:18:53;;;;;;;0.47;0.47;;;7.10;99.90;;;;;;5025335;28;20191;-82
2022/03/24 03:21:19;;;;;;;1.40;1.10;;;7.10;99.90;;;;;;5027678;28;20856;-82
2022/03/24 03:23:45;;;;;;;0.70;0.70;;;7.10;99.90;;;;;;5024592;28;20211;-82
2022/03/24 03:26:12;;;;;;;0.40;0.40;;;7.10;99.90;;;;;;5024932;28;21115;-82
2022/03/24 03:28:39;;;;;;;3.03;2.47;;;7.10;99.90;;;;;;5024795;28;20194;-82
2022/03/24 03:31:05;;;;;;;1.03;0.97;;;7.00;99.90;;;;;;5026879;28;20190;-82
2022/03/24 03:33:32;;;;;;;1.23;0.93;;;6.80;99.90;;;;;;5032912;28;20313;-82
2022/03/24 03:35:58;;;;;;;0.83;0.83;;;6.70;99.90;;;;;;5026382;28;20187;-82
2022/03/24 03:38:24;;;;;;;0.90;0.90;;;6.70;99.90;;;;;;5025329;28;20192;-82
2022/03/24 03:40:50;;;;;;;0.77;0.70;;;6.80;99.90;;;;;;5026556;28;20178;-81
2022/03/24 03:43:16;;;;;;;1.87;1.63;;;6.70;99.90;;;;;;5024615;28;20681;-82
2022/03/24 03:45:42;;;;;;;0.33;0.33;;;6.80;99.90;;;;;;5026203;28;20200;-81
2022/03/24 03:48:09;;;;;;;0.63;0.40;;;6.80;99.90;;;;;;5025379;28;20718;-81
2022/03/24 03:50:35;;;;;;;1.43;0.93;;;6.80;99.90;;;;;;5023191;28;20218;-82
2022/03/24 03:53:00;;;;;;;4.17;1.13;;;6.80;99.90;;;;;;5026535;28;20318;-82
2022/03/24 03:55:27;;;;;;;0.97;0.97;;;6.70;99.90;;;;;;5025697;28;20204;-82
2022/03/24 03:57:53;;;;;;;0.60;0.60;;;6.70;99.90;;;;;;5028034;28;20186;-82
2022/03/24 04:03:04;;;;;;;0.97;0.97;;;6.70;99.90;;;;;;5025452;28;20273;-82
2022/03/24 04:05:31;;;;;;;0.97;0.77;;;6.70;99.90;;;;;;5024355;28;20205;-82
2022/03/24 04:07:57;;;;;;;0.50;0.50;;;6.60;99.90;;;;;;5025027;28;21072;-81
2022/03/24 04:10:22;;;;;;;0.17;0.17;;;6.50;99.90;;;;;;5027329;28;20266;-82
2022/03/24 04:12:50;;;;;;;1.50;0.90;;;6.50;99.90;;;;;;5024298;28;20237;-82
2022/03/24 04:15:16;;;;;;;1.13;0.87;;;6.50;99.90;;;;;;5026394;28;20207;-82
2022/03/24 04:17:42;;;;;;;0.80;0.80;;;6.50;99.90;;;;;;5023683;28;20196;-82
2022/03/24 04:20:08;;;;;;;0.47;0.47;;;6.50;99.90;;;;;;5024492;28;20664;-82
2022/03/24 04:22:35;;;;;;;0.50;0.40;;;6.50;99.90;;;;;;5025445;28;20189;-82
2022/03/24 04:25:00;;;;;;;1.53;1.13;;;6.50;99.90;;;;;;5023322;28;20626;-82
2022/03/24 04:27:26;;;;;;;0.27;0.27;;;6.50;99.90;;;;;;5025405;28;20191;-82
2022/03/24 04:29:51;;;;;;;2.70;1.37;;;6.50;99.90;;;;;;5024318;28;20663;-82
2022/03/24 04:32:17;;;;;;;1.23;1.13;;;6.50;99.90;;;;;;5024646;28;20217;-82
2022/03/24 04:34:42;;;;;;;1.10;0.67;;;6.40;99.90;;;;;;5024222;28;20213;-82
2022/03/24 04:37:08;;;;;;;0.93;0.60;;;6.40;99.90;;;;;;5023831;28;20202;-82
2022/03/24 04:39:34;;;;;;;2.87;0.53;;;6.30;99.90;;;;;;5023470;28;20250;-81
2022/03/24 04:41:59;;;;;;;0.80;0.53;;;6.30;99.90;;;;;;5025513;28;20179;-82
2022/03/24 04:44:25;;;;;;;0.33;0.33;;;6.30;99.90;;;;;;5023517;28;20211;-83
2022/03/24 04:46:51;;;;;;;1.23;1.13;;;6.30;99.90;;;;;;5014921;28;20190;-82
2022/03/24 04:49:17;;;;;;;1.27;1.27;;;6.30;99.90;;;;;;5024973;28;20194;-82
2022/03/24 04:51:43;;;;;;;0.47;0.47;;;6.30;99.90;;;;;;5024671;28;20179;-81
2022/03/24 04:54:09;;;;;;;2.10;0.70;;;6.30;99.90;;;;;;5020675;28;20294;-82
2022/03/24 04:56:34;;;;;;;0.63;0.63;;;6.30;99.90;;;;;;5016717;28;20739;-82
2022/03/24 04:59:00;;;;;;;0.40;0.37;;;6.40;99.90;;;;;;5022648;28;20663;-82
2022/03/24 05:01:26;;;;;;;1.73;1.27;;;6.20;99.90;;;;;;5025622;28;20191;-82
2022/03/24 05:03:51;;;;;;;0.50;0.50;;;6.30;99.90;;;;;;5024605;28;20207;-81
2022/03/24 05:06:17;;;;;;;0.53;0.20;;;6.20;99.90;;;;;;5023212;28;20230;-81
2022/03/24 05:08:43;;;;;;;1.23;1.00;;;6.30;99.90;;;;;;5027611;28;20258;-81
2022/03/24 05:11:08;;;;;;;0.30;0.30;;;6.20;99.90;;;;;;5025014;28;20598;-82
2022/03/24 05:13:34;;;;;;;0.80;0.80;;;6.20;99.90;;;;;;5023956;28;20223;-82
2022/03/24 05:16:00;;;;;;;1.27;0.97;;;6.30;99.90;;;;;;5023392;28;20249;-81
2022/03/24 05:18:25;;;;;;;1.97;0.67;;;6.30;99.90;;;;;;5026613;28;20214;-81
2022/03/24 05:20:52;;;;;;;1.27;0.73;;;6.30;99.90;;;;;;5024651;28;20233;-82
2022/03/24 05:23:17;;;;;;;0.80;0.80;;;6.30;99.90;;;;;;5025561;28;20303;-81
2022/03/24 05:25:48;;;;;;;0.70;0.70;;;6.30;99.90;;;;;;5024463;28;21314;-81
2022/03/24 05:28:18;;;;;;;1.33;1.23;;;6.30;99.90;;;;;;5024961;28;20198;-81
2022/03/24 05:30:43;;;;;;;1.57;0.80;;;6.30;99.90;;;;;;5023114;28;20186;-81
2022/03/24 05:33:09;;;;;;;1.43;1.00;;;6.30;99.90;;;;;;5023777;28;20328;-81
2022/03/24 05:35:35;;;;;;;0.93;0.93;;;6.30;99.90;;;;;;5024119;28;20200;-82
2022/03/24 05:38:03;;;;;;;1.53;0.93;;;6.30;99.90;;;;;;5021869;28;20233;-81
2022/03/24 05:40:28;;;;;;;0.93;0.83;;;6.30;99.90;;;;;;5040809;28;20178;-82
2022/03/24 05:42:54;;;;;;;1.17;0.67;;;6.30;99.90;;;;;;5024856;28;20193;-82
2022/03/24 05:45:19;;;;;;;0.70;0.70;;;6.30;99.90;;;;;;5023612;28;20240;-82
2022/03/24 05:47:45;;;;;;;3.97;1.30;;;6.30;99.90;;;;;;5022857;28;20237;-82
2022/03/24 05:50:12;;;;;;;1.20;1.03;;;6.40;99.90;;;;;;5019196;28;20520;-82
2022/03/24 05:52:38;;;;;;;1.10;0.57;;;6.20;99.90;;;;;;5022645;28;20300;-82
2022/03/24 05:55:04;;;;;;;1.43;1.00;;;6.20;99.90;;;;;;5024444;28;21113;-82
2022/03/24 05:57:30;;;;;;;3.07;1.03;;;6.40;99.90;;;;;;5025292;28;20182;-81
2022/03/24 05:59:55;;;;;;;1.60;1.17;;;6.50;99.90;;;;;;5023387;28;20209;-82
2022/03/24 06:02:21;;;;;;;0.63;0.50;;;6.60;99.90;;;;;;5023294;28;20297;-81
2022/03/24 06:04:49;;;;;;;0.60;0.60;;;6.70;99.90;;;;;;5030388;28;20741;-82
2022/03/24 06:07:15;;;;;;;0.83;0.83;;;6.80;99.90;;;;;;5019801;28;20576;-82
2022/03/24 06:09:41;;;;;;;1.53;1.27;;;6.90;99.90;;;;;;5022234;28;20194;-82
2022/03/24 06:12:10;;;;;;;0.40;0.40;;;7.00;99.90;;;;;;5022660;28;20211;-82
2022/03/24 06:14:37;;;;;;;0.73;0.73;;;7.10;99.90;;;;;;5023868;28;20300;-82
2022/03/24 06:17:03;;;;;;;0.40;0.40;;;7.20;99.90;;;;;;5018877;28;20197;-82
2022/03/24 06:19:29;;;;;;;4.13;1.50;;;7.20;99.90;;;;;;5020526;28;20184;-81
2022/03/24 06:21:54;;;;;;;1.80;1.50;;;7.30;99.90;;;;;;5011044;28;20201;-81
2022/03/24 06:24:20;;;;;;;0.53;0.53;;;7.30;99.90;;;;;;5019136;28;20207;-80
2022/03/24 06:26:45;;;;;;;2.00;0.70;;;7.30;99.90;;;;;;5020717;28;20189;-81
2022/03/24 06:29:13;;;;;;;0.60;0.60;;;7.30;99.90;;;;;;5021653;28;20190;-82
2022/03/24 06:31:40;;;;;;;0.20;0.20;;;7.50;99.90;;;;;;5023667;28;20188;-80
2022/03/24 06:34:06;;;;;;;1.73;0.60;;;7.70;99.90;;;;;;5024150;28;20236;-82
2022/03/24 06:36:32;;;;;;;1.53;1.17;;;7.90;99.90;;;;;;5019082;28;20672;-81
2022/03/24 06:38:58;;;;;;;0.50;0.50;;;8.00;99.90;;;;;;5021837;28;20189;-81
2022/03/24 06:41:25;;;;;;;0.60;0.60;;;8.20;99.90;;;;;;5017002;28;20183;-81
2022/03/24 06:43:50;;;;;;;2.13;0.80;;;8.30;99.90;;;;;;5022454;28;20234;-81
2022/03/24 06:46:17;;;;;;;0.63;0.63;;;8.40;99.90;;;;;;5021680;28;20657;-81
2022/03/24 06:48:42;;;;;;;0.53;0.53;;;8.50;99.90;;;;;;5024601;28;20212;-81
2022/03/24 06:51:08;;;;;;;1.03;0.97;;;8.50;99.90;;;;;;5023614;28;20197;-81
2022/03/24 06:53:34;;;;;;;0.73;0.70;;;8.60;99.90;;;;;;5025931;28;20259;-81
2022/03/24 06:56:00;;;;;;;1.50;1.03;;;8.70;99.90;;;;;;5025698;28;20222;-81
2022/03/24 06:58:26;;;;;;;2.53;1.47;;;8.80;99.90;;;;;;5023837;28;20253;-81
2022/03/24 07:00:51;;;;;;;2.00;1.07;;;8.90;99.90;;;;;;5024910;28;20199;-81
2022/03/24 07:03:17;;;;;;;1.50;1.40;;;9.00;99.90;;;;;;5025966;28;20730;-81
2022/03/24 07:05:42;;;;;;;0.60;0.60;;;9.10;99.90;;;;;;5024851;28;20202;-81
2022/03/24 07:08:11;;;;;;;1.70;1.60;;;9.10;99.90;;;;;;5025707;28;20230;-81
2022/03/24 07:10:36;;;;;;;1.17;1.10;;;9.20;99.90;;;;;;5023477;28;20189;-81
2022/03/24 07:13:02;;;;;;;1.00;1.00;;;9.30;99.90;;;;;;5023076;28;20665;-81
2022/03/24 07:15:28;;;;;;;1.67;1.30;;;9.50;99.90;;;;;;5023413;28;20237;-81
2022/03/24 07:17:54;;;;;;;1.47;1.30;;;9.60;99.90;;;;;;5024630;28;20244;-81
2022/03/24 07:20:20;;;;;;;6.90;1.53;;;9.60;99.90;;;;;;5027513;28;20296;-81
2022/03/24 07:22:46;;;;;;;0.57;0.50;;;9.60;99.90;;;;;;5028634;28;20193;-81
2022/03/24 07:25:13;;;;;;;1.13;0.70;;;9.80;99.90;;;;;;5028662;28;20210;-81
2022/03/24 07:27:42;;;;;;;1.17;1.00;;;10.00;99.90;;;;;;5027475;28;20194;-81
2022/03/24 07:30:09;;;;;;;2.03;1.27;;;10.20;99.90;;;;;;5028149;28;20241;-81
2022/03/24 07:32:35;;;;;;;2.60;2.03;;;10.30;99.90;;;;;;5027765;28;20846;-81
2022/03/24 07:35:02;;;;;;;1.20;0.67;;;10.30;99.90;;;;;;5028917;28;20202;-81
2022/03/24 07:37:32;;;;;;;1.50;1.30;;;10.50;99.90;;;;;;5028289;28;20266;-81
2022/03/24 07:39:58;;;;;;;2.10;0.70;;;10.60;99.90;;;;;;5027111;28;20225;-81
2022/03/24 07:42:24;;;;;;;1.07;1.03;;;10.60;99.90;;;;;;5023776;28;20186;-82
2022/03/24 07:44:49;;;;;;;0.70;0.70;;;10.80;99.90;;;;;;5021034;28;21108;-81
2022/03/24 07:47:16;;;;;;;0.73;0.63;;;11.00;99.90;;;;;;5026445;28;20257;-81
2022/03/24 07:49:41;;;;;;;4.00;1.40;;;11.10;99.90;;;;;;5025742;28;20192;-81
2022/03/24 07:52:17;;;;;;;1.80;1.27;;;11.20;99.90;;;;;;5027032;28;20194;-81
2022/03/24 07:54:56;;;;;;;0.60;0.60;;;11.40;99.90;;;;;;5027225;28;20201;-81
2022/03/24 07:57:22;;;;;;;3.87;1.90;;;11.40;99.90;;;;;;5021633;28;20182;-83
2022/03/24 07:59:48;;;;;;;1.03;0.70;;;11.60;99.90;;;;;;5027120;28;20209;-84
2022/03/24 08:02:15;;;;;;;0.70;0.70;;;11.80;99.90;;;;;;5018153;28;20186;-80
2022/03/24 08:04:41;;;;;;;1.43;1.33;;;11.90;99.90;;;;;;5021908;28;20225;-79
2022/03/24 08:07:07;;;;;;;0.97;0.97;;;11.90;99.90;;;;;;5019637;28;20228;-78
2022/03/24 08:09:32;;;;;;;1.80;1.27;;;12.10;99.90;;;;;;5022802;28;20197;-79
2022/03/24 08:11:58;;;;;;;0.73;0.70;;;12.30;99.90;;;;;;5018822;28;20669;-79
2022/03/24 08:14:24;;;;;;;2.77;1.17;;;12.40;99.90;;;;;;5024269;28;20241;-79
2022/03/24 08:16:49;;;;;;;3.17;1.43;;;12.40;99.90;;;;;;5021099;28;20225;-79
2022/03/24 08:19:15;;;;;;;1.87;1.57;;;12.50;99.90;;;;;;5020309;28;20305;-81
2022/03/24 08:21:42;;;;;;;1.57;1.47;;;12.60;99.90;;;;;;5022774;28;20565;-80
2022/03/24 08:24:08;;;;;;;4.80;1.40;;;12.80;99.90;;;;;;5024447;28;20206;-82
2022/03/24 08:26:40;;;;;;;3.37;1.67;;;13.00;99.90;;;;;;5012797;28;20193;-81
2022/03/24 08:29:06;;;;;;;0.90;0.90;;;13.20;99.90;;;;;;5011702;28;20192;-82
2022/03/24 08:31:33;;;;;;;3.40;1.90;;;13.30;99.90;;;;;;5009002;28;20255;-84
2022/03/24 08:33:58;;;;;;;1.30;1.20;;;13.40;99.90;;;;;;5016684;28;20286;-84
2022/03/24 08:36:24;;;;;;;1.17;0.67;;;13.50;99.90;;;;;;5024556;28;21294;-84
2022/03/24 08:38:50;;;;;;;2.33;1.43;;;13.60;99.90;;;;;;5021658;28;20213;-82
2022/03/24 08:41:16;;;;;;;1.20;1.10;;;13.70;99.90;;;;;;5013882;28;20687;-79
2022/03/24 08:43:41;;;;;;;1.60;1.30;;;13.90;99.90;;;;;;5013853;28;20299;-80
2022/03/24 08:46:09;;;;;;;1.67;1.57;;;14.00;99.90;;;;;;5018132;28;20218;-79
2022/03/24 08:48:35;;;;;;;3.00;1.97;;;14.00;99.90;;;;;;5019454;28;20220;-80
2022/03/24 08:51:01;;;;;;;1.60;1.47;;;14.20;99.90;;;;;;5022247;28;20203;-80
2022/03/24 08:53:27;;;;;;;1.17;0.90;;;14.30;99.90;;;;;;5022455;28;20219;-80
2022/03/24 08:55:52;;;;;;;1.27;1.13;;;14.40;99.90;;;;;;5023408;28;20190;-83
2022/03/24 08:58:18;;;;;;;1.63;0.83;;;14.50;99.90;;;;;;5023045;28;20227;-80
2022/03/24 09:00:47;;;;;;;2.67;1.63;;;14.70;99.90;;;;;;5021028;28;20241;-80
2022/03/24 09:03:13;;;;;;;1.50;1.40;;;14.80;99.90;;;;;;5023065;28;20216;-80
2022/03/24 09:05:39;;;;;;;11.73;2.23;;;14.80;99.90;;;;;;5023679;28;20225;-80
2022/03/24 09:08:06;;;;;;;4.13;2.53;;;15.10;99.90;;;;;;5021659;28;20608;-80
2022/03/24 09:10:32;;;;;;;5.27;2.33;;;15.30;99.90;;;;;;5018642;28;20273;-80
2022/03/24 09:12:57;;;;;;;1.93;1.73;;;15.40;99.90;;;;;;5019971;28;20245;-80
2022/03/24 09:15:23;;;;;;;1.57;1.47;;;15.50;99.90;;;;;;5019312;28;20214;-80
2022/03/24 09:17:49;;;;;;;2.63;2.43;;;15.60;99.90;;;;;;5018712;28;20182;-80
2022/03/24 09:20:23;;;;;;;2.50;1.60;;;15.60;99.90;;;;;;5014515;28;20202;-80
2022/03/24 09:22:50;;;;;;;3.23;3.03;;;15.80;99.90;;;;;;5019075;28;20182;-80
2022/03/24 09:25:16;;;;;;;2.30;1.87;;;16.00;99.90;;;;;;5024112;28;20224;-80
2022/03/24 09:27:43;;;;;;;3.23;2.03;;;16.10;99.90;;;;;;5023575;28;20224;-82
2022/03/24 09:30:12;;;;;;;1.10;1.00;;;16.20;99.90;;;;;;5024101;28;20190;-82
2022/03/24 09:32:38;;;;;;;2.47;2.27;;;16.40;99.90;;;;;;5024611;28;20617;-82
2022/03/24 09:35:04;;;;;;;5.50;1.57;;;16.60;99.90;;;;;;5022473;28;20293;-82
2022/03/24 09:37:32;;;;;;;4.40;1.80;;;16.70;99.90;;;;;;5021023;28;20193;-82
2022/03/24 09:39:58;;;;;;;5.20;2.33;;;16.60;99.90;;;;;;5019672;28;20174;-82
2022/03/24 09:42:23;;;;;;;6.67;3.10;;;16.70;99.90;;;;;;5019509;28;20253;-82
2022/03/24 09:44:49;;;;;;;4.97;1.60;;;16.80;99.90;;;;;;5018761;28;20276;-82
2022/03/24 09:47:16;;;;;;;2.47;2.27;;;17.00;99.90;;;;;;5020497;28;20190;-82
2022/03/24 09:49:42;;;;;;;2.00;1.67;;;17.20;99.90;;;;;;5020302;28;20248;-82
2022/03/24 09:52:12;;;;;;;3.00;1.80;;;17.30;99.90;;;;;;5017986;28;20259;-82
2022/03/24 09:54:42;;;;;;;1.57;1.47;;;17.50;99.90;;;;;;5020179;28;20198;-82
2022/03/24 09:57:09;;;;;;;2.83;2.60;;;17.60;99.90;;;;;;5020756;28;20271;-81
2022/03/24 09:59:35;;;;;;;2.40;1.80;;;17.70;99.90;;;;;;5018908;28;20195;-82
2022/03/24 10:02:02;;;;;;;3.37;2.77;;;18.00;99.90;;;;;;5017888;28;20182;-82
2022/03/24 10:04:42;;;;;;;3.77;1.60;;;18.00;99.90;;;;;;5019405;28;20202;-82
2022/03/24 10:07:08;;;;;;;7.37;3.27;;;18.10;99.90;;;;;;5019413;28;20202;-82
2022/03/24 10:09:55;;;;;;;14.00;3.00;;;18.10;99.90;;;;;;5021096;28;20183;-82
2022/03/24 10:12:25;;;;;;;2.10;1.60;;;18.10;99.90;;;;;;5028371;28;20206;-82
2022/03/24 10:15:04;;;;;;;4.70;2.27;;;18.20;99.90;;;;;;5020870;28;20687;-82
2022/03/24 10:17:31;;;;;;;4.60;3.70;;;18.20;99.90;;;;;;5019520;28;20247;-81
2022/03/24 10:19:58;;;;;;;3.17;1.80;;;18.30;99.90;;;;;;5020557;28;20183;-81
2022/03/24 10:22:24;;;;;;;2.80;2.60;;;18.40;99.90;;;;;;5018096;28;20186;-82
2022/03/24 10:24:49;;;;;;;2.10;1.90;;;18.60;99.90;;;;;;5021769;28;20206;-82
2022/03/24 10:27:23;;;;;;;4.70;2.90;;;18.80;99.90;;;;;;5017732;28;20377;-82
2022/03/24 10:29:54;;;;;;;3.87;2.07;;;18.90;99.90;;;;;;5017843;28;20194;-82
2022/03/24 10:32:20;;;;;;;2.50;2.30;;;19.10;99.90;;;;;;5014719;28;20210;-83
2022/03/24 10:34:48;;;;;;;4.70;3.03;;;19.30;99.90;;;;;;5020259;28;20225;-82
2022/03/24 10:37:19;;;;;;;4.57;2.80;;;19.40;99.90;;;;;;5014008;28;20894;-82
2022/03/24 10:40:06;;;;;;;4.67;3.20;;;19.30;99.90;;;;;;5013647;28;20197;-82
2022/03/24 10:42:33;;;;;;;3.43;3.13;;;19.50;99.90;;;;;;5014706;28;20230;-82
2022/03/24 10:45:18;;;;;;;4.03;2.87;;;19.70;99.90;;;;;;5015537;28;20313;-82
2022/03/24 10:47:46;;;;;;;3.73;2.93;;;19.60;99.90;;;;;;5019308;28;20191;-82
2022/03/24 10:50:22;;;;;;;3.60;3.30;;;19.40;99.90;;;;;;5020855;28;20213;-82
2022/03/24 10:52:48;;;;;;;5.87;3.37;;;19.50;99.90;;;;;;5022790;28;20217;-82
2022/03/24 10:55:35;;;;;;;4.37;2.30;;;19.60;99.90;;;;;;5023289;28;20208;-82
2022/03/24 10:58:04;;;;;;;3.93;3.37;;;19.80;99.90;;;;;;5025095;28;20263;-82
2022/03/24 11:00:31;;;;;;;5.23;3.20;;;19.90;99.90;;;;;;5024542;28;20251;-82
2022/03/24 11:02:57;;;;;;;4.33;2.60;;;20.20;99.90;;;;;;5027885;28;20205;-80
2022/03/24 11:05:22;;;;;;;3.83;2.63;;;20.30;99.90;;;;;;5027785;28;20215;-82
2022/03/24 11:07:56;;;;;;;5.47;3.33;;;20.40;99.90;;;;;;5024671;28;20194;-82
2022/03/24 11:10:23;;;;;;;5.60;4.13;;;20.50;99.90;;;;;;5024851;28;20180;-82
2022/03/24 11:12:59;;;;;;;3.70;2.70;;;20.50;99.90;;;;;;5025878;28;20238;-82
2022/03/24 11:15:26;;;;;;;3.37;3.03;;;20.60;99.90;;;;;;5034399;28;20580;-83
2022/03/24 11:17:52;;;;;;;3.83;3.00;;;19.80;99.90;;;;;;5025954;28;20253;-82
2022/03/24 11:20:21;;;;;;;8.67;4.90;;;19.00;99.90;;;;;;5024564;28;20305;-82
2022/03/24 11:23:03;;;;;;;4.23;1.83;;;19.20;99.90;;;;;;5024934;28;20282;-82
2022/03/24 11:25:29;;;;;;;2.43;1.20;;;19.80;99.90;;;;;;5026553;28;20183;-82
2022/03/24 11:27:56;;;;;;;3.80;2.87;;;20.30;99.90;;;;;;5026748;28;20193;-83
2022/03/24 11:30:23;;;;;;;4.47;3.30;;;20.50;99.90;;;;;;5026151;28;20187;-82
2022/03/24 11:32:52;;;;;;;4.70;2.63;;;20.80;99.90;;;;;;5030379;28;20218;-82
2022/03/24 11:35:18;;;;;;;4.03;2.67;;;21.00;99.90;;;;;;5026657;28;20269;-85
2022/03/24 11:37:44;;;;;;;4.37;2.57;;;21.10;99.90;;;;;;5026496;28;20538;-82
2022/03/24 11:40:17;;;;;;;6.37;4.20;;;21.20;99.90;;;;;;5028986;28;20191;-82
2022/03/24 11:42:48;;;;;;;8.37;2.97;;;21.20;99.90;;;;;;5027710;28;20686;-82
2022/03/24 11:45:26;;;;;;;3.93;2.77;;;21.20;99.90;;;;;;5027213;28;20214;-81
2022/03/24 11:48:10;;;;;;;6.10;3.60;;;21.00;99.90;;;;;;5028388;28;20194;-82
2022/03/24 11:50:46;;;;;;;5.83;3.20;;;20.90;99.90;;;;;;5028487;28;22256;-82
2022/03/24 11:53:40;;;;;;;3.03;2.73;;;21.00;99.90;;;;;;5028455;28;20225;-82
2022/03/24 11:56:06;;;;;;;3.13;1.80;;;21.10;99.90;;;;;;5026238;28;20294;-82
2022/03/24 11:58:35;;;;;;;3.20;2.20;;;21.00;99.90;;;;;;5028093;28;20846;-81
2022/03/24 12:01:19;;;;;;;2.33;2.13;;;21.10;99.90;;;;;;5026810;28;20183;-82
2022/03/24 12:04:01;;;;;;;2.90;1.53;;;21.20;99.90;;;;;;5026561;28;20206;-82
2022/03/24 12:06:45;;;;;;;5.57;3.07;;;21.30;99.90;;;;;;5025206;28;20210;-82
2022/03/24 12:09:13;;;;;;;4.30;2.07;;;21.40;99.90;;;;;;5026195;28;20201;-83
2022/03/24 12:11:44;;;;;;;2.53;1.23;;;21.50;99.90;;;;;;5025327;28;20642;-83
2022/03/24 12:14:13;;;;;;;4.57;2.87;;;21.60;99.90;;;;;;5026683;28;20226;-83
2022/03/24 12:16:41;;;;;;;3.90;2.40;;;21.50;99.90;;;;;;5027282;28;20206;-83
2022/03/24 12:19:34;;;;;;;5.23;3.37;;;21.60;99.90;;;;;;5029769;28;20308;-82
2022/03/24 12:22:01;;;;;;;5.70;2.57;;;21.60;99.90;;;;;;5027670;28;20171;-83
2022/03/24 12:24:35;;;;;;;2.73;2.50;;;21.70;99.90;;;;;;5028107;28;20218;-81
2022/03/24 12:27:05;;;;;;;4.63;2.97;;;21.90;99.90;;;;;;5025894;28;20194;-81
2022/03/24 12:29:31;;;;;;;6.87;3.20;;;22.00;99.90;;;;;;5028526;28;20209;-83
2022/03/24 12:32:11;;;;;;;3.40;2.33;;;21.90;99.90;;;;;;5029870;28;20707;-83
2022/03/24 12:34:39;;;;;;;2.67;2.43;;;21.90;99.90;;;;;;5027272;28;20218;-83
2022/03/24 12:37:06;;;;;;;3.87;2.50;;;21.80;99.90;;;;;;5021768;28;20245;-82
2022/03/24 12:39:35;;;;;;;5.33;2.13;;;21.30;99.90;;;;;;5032252;28;20178;-83
2022/03/24 12:42:08;;;;;;;6.70;3.80;;;21.50;99.90;;;;;;5028816;28;20212;-83
2022/03/24 12:44:57;;;;;;;3.37;2.30;;;21.60;99.90;;;;;;5027086;28;20296;-83
2022/03/24 12:47:49;;;;;;;4.63;2.53;;;21.60;99.90;;;;;;5028497;28;20268;-83
2022/03/24 12:50:21;;;;;;;5.10;1.80;;;21.70;99.90;;;;;;5028709;28;20770;-83
2022/03/24 12:53:02;;;;;;;5.40;3.37;;;21.80;99.90;;;;;;5026327;28;20202;-83
2022/03/24 12:55:32;;;;;;;4.00;3.27;;;21.70;99.90;;;;;;5026066;28;20272;-83
2022/03/24 12:58:18;;;;;;;5.73;4.80;;;21.60;99.90;;;;;;5026805;28;20660;-84